createdAt,value
2022-09-07T00:02:05.568Z,101157.53
2022-09-07T00:04:32.340Z,101153.16
2022-09-07T00:06:59.071Z,101156.69
2022-09-07T00:09:25.835Z,101140.91
2022-09-07T00:11:52.497Z,101136.00
2022-09-07T00:14:19.211Z,101144.47
2022-09-07T00:16:45.937Z,101152.28
2022-09-07T00:19:14.184Z,101142.84
2022-09-07T00:21:40.990Z,101153.09
2022-09-07T00:24:07.739Z,101144.78
2022-09-07T00:26:34.388Z,101154.50
2022-09-07T00:29:03.676Z,101153.91
2022-09-07T00:31:31.091Z,101157.41
2022-09-07T00:34:00.534Z,101148.81
2022-09-07T00:36:27.861Z,101149.06
2022-09-07T00:38:55.260Z,101153.09
2022-09-07T00:41:23.033Z,101150.81
2022-09-07T00:43:55.606Z,101153.41
2022-09-07T00:46:27.561Z,101160.22
2022-09-07T00:49:00.601Z,101160.56
2022-09-07T00:51:42.532Z,101163.38
2022-09-07T00:54:17.420Z,101162.41
2022-09-07T00:56:45.196Z,101160.22
2022-09-07T00:59:15.826Z,101157.88
2022-09-07T01:01:42.877Z,101160.47
2022-09-07T01:04:09.935Z,101156.16
2022-09-07T01:06:39.660Z,101160.31
2022-09-07T01:09:18.741Z,101158.75
2022-09-07T01:11:51.148Z,101163.88
2022-09-07T01:14:29.036Z,101163.00
2022-09-07T01:17:14.532Z,101170.94
2022-09-07T01:20:09.013Z,101182.31
2022-09-07T01:23:03.769Z,101180.94
2022-09-07T01:25:39.730Z,101177.28
2022-09-07T01:28:29.258Z,101173.81
2022-09-07T01:31:09.716Z,101175.19
2022-09-07T01:34:07.148Z,101181.22
2022-09-07T01:36:40.771Z,101180.09
2022-09-07T01:39:08.303Z,101174.63
2022-09-07T01:41:53.767Z,101172.66
2022-09-07T01:44:20.524Z,101164.13
2022-09-07T01:47:01.578Z,101167.53
2022-09-07T01:49:46.136Z,101159.44
2022-09-07T01:52:38.332Z,101158.97
2022-09-07T01:55:05.023Z,101156.75
2022-09-07T01:57:43.250Z,101155.44
2022-09-07T02:00:15.485Z,101158.72
2022-09-07T02:02:53.232Z,101148.44
2022-09-07T02:05:23.853Z,101146.88
2022-09-07T02:08:03.380Z,101146.50
2022-09-07T02:11:00.685Z,101149.06
2022-09-07T02:13:35.697Z,101151.13
2022-09-07T02:16:09.479Z,101146.22
2022-09-07T02:18:44.563Z,101138.41
2022-09-07T02:21:13.377Z,101138.13
2022-09-07T02:23:58.066Z,101136.38
2022-09-07T02:26:28.812Z,101131.00
2022-09-07T02:28:56.070Z,101132.75
2022-09-07T02:31:23.122Z,101133.47
2022-09-07T02:33:50.106Z,101129.69
2022-09-07T02:36:21.145Z,101138.38
2022-09-07T02:38:47.827Z,101125.09
2022-09-07T02:41:38.412Z,101125.53
2022-09-07T02:44:14.133Z,101123.84
2022-09-07T02:46:59.576Z,101118.84
2022-09-07T02:49:38.200Z,101123.44
2022-09-07T02:52:07.685Z,101120.41
2022-09-07T02:54:56.113Z,101119.91
2022-09-07T02:57:41.534Z,101113.06
2022-09-07T03:00:20.913Z,101115.66
2022-09-07T03:03:14.802Z,101125.47
2022-09-07T03:05:55.433Z,101128.31
2022-09-07T03:08:28.824Z,101128.06
2022-09-07T03:10:57.711Z,101128.22
2022-09-07T03:13:27.514Z,101119.75
2022-09-07T03:15:56.282Z,101124.69
2022-09-07T03:18:24.309Z,101117.56
2022-09-07T03:20:51.327Z,101119.75
2022-09-07T03:23:18.111Z,101108.66
2022-09-07T03:25:45.428Z,101113.19
2022-09-07T03:28:12.279Z,101108.44
2022-09-07T03:30:43.381Z,101109.16
2022-09-07T03:33:11.366Z,101103.28
2022-09-07T03:35:38.161Z,101103.78
2022-09-07T03:38:04.899Z,101108.78
2022-09-07T03:40:31.606Z,101111.97
2022-09-07T03:42:58.370Z,101114.28
2022-09-07T03:45:26.691Z,101112.44
2022-09-07T03:47:53.352Z,101107.28
2022-09-07T03:50:20.063Z,101114.78
2022-09-07T03:52:46.770Z,101109.50
2022-09-07T03:55:13.509Z,101111.31
2022-09-07T03:57:40.512Z,101116.41
2022-09-07T04:00:08.392Z,101122.69
2022-09-07T04:02:36.537Z,101122.25
2022-09-07T04:05:03.421Z,101122.88
2022-09-07T04:07:30.186Z,101128.59
2022-09-07T04:09:57.607Z,101123.09
2022-09-07T04:12:26.166Z,101137.69
2022-09-07T04:14:52.902Z,101135.81
2022-09-07T04:17:19.618Z,101139.84
2022-09-07T04:19:46.343Z,101140.56
2022-09-07T04:22:13.013Z,101148.28
2022-09-07T04:24:39.702Z,101144.97
2022-09-07T04:27:06.461Z,101150.84
2022-09-07T04:29:33.232Z,101155.97
2022-09-07T04:31:59.919Z,101164.72
2022-09-07T04:34:26.719Z,101157.88
2022-09-07T04:36:53.628Z,101162.03
2022-09-07T04:39:20.344Z,101156.75
2022-09-07T04:41:48.161Z,101165.09
2022-09-07T04:44:16.923Z,101169.13
2022-09-07T04:46:43.974Z,101174.81
2022-09-07T04:49:12.821Z,101165.72
2022-09-07T04:51:40.353Z,101165.31
2022-09-07T04:54:07.412Z,101167.53
2022-09-07T04:56:34.150Z,101172.00
2022-09-07T04:59:01.896Z,101181.13
2022-09-07T05:01:28.689Z,101179.38
2022-09-07T05:03:55.525Z,101177.09
2022-09-07T05:06:23.357Z,101182.03
2022-09-07T05:08:52.430Z,101183.97
2022-09-07T05:11:24.948Z,101187.25
2022-09-07T05:13:59.143Z,101191.09
2022-09-07T05:16:26.707Z,101197.06
2022-09-07T05:18:56.847Z,101193.59
2022-09-07T05:21:26.643Z,101200.47
2022-09-07T05:23:55.575Z,101205.44
2022-09-07T05:26:24.215Z,101200.06
2022-09-07T05:28:51.081Z,101207.16
2022-09-07T05:31:23.026Z,101203.72
2022-09-07T05:36:41.443Z,101206.41
2022-09-07T05:39:09.140Z,101206.53
2022-09-07T05:41:36.150Z,101206.63
2022-09-07T05:46:51.726Z,101209.53
2022-09-07T05:49:18.468Z,101213.16
2022-09-07T05:51:45.229Z,101210.47
2022-09-07T05:54:12.239Z,101219.84
2022-09-07T05:56:39.256Z,101217.47
2022-09-07T05:59:06.209Z,101220.03
2022-09-07T06:01:35.387Z,101223.00
2022-09-07T06:04:02.497Z,101219.41
2022-09-07T06:06:29.547Z,101220.06
2022-09-07T06:08:57.825Z,101214.03
2022-09-07T06:11:26.411Z,101214.34
2022-09-07T06:13:53.531Z,101216.47
2022-09-07T06:16:20.898Z,101220.66
2022-09-07T06:18:49.832Z,101221.50
2022-09-07T06:21:23.791Z,101219.13
2022-09-07T06:23:51.515Z,101216.44
2022-09-07T06:26:20.328Z,101215.28
2022-09-07T06:28:49.834Z,101211.91
2022-09-07T06:31:22.972Z,101209.34
2022-09-07T06:33:51.017Z,101218.59
2022-09-07T06:36:18.701Z,101219.34
2022-09-07T06:38:47.054Z,101217.81
2022-09-07T06:44:12.473Z,101211.53
2022-09-07T06:49:26.520Z,101212.38
2022-09-07T06:51:53.356Z,101220.41
2022-09-07T06:57:09.781Z,101219.72
2022-09-07T06:59:37.554Z,101221.66
2022-09-07T07:02:05.893Z,101233.94
2022-09-07T07:04:39.507Z,101243.00
2022-09-07T07:07:11.175Z,101243.47
2022-09-07T07:09:38.278Z,101242.88
2022-09-07T07:12:05.031Z,101242.97
2022-09-07T07:14:34.403Z,101252.41
2022-09-07T07:17:02.342Z,101251.44
2022-09-07T07:19:29.197Z,101250.97
2022-09-07T07:22:29.629Z,101245.59
2022-09-07T07:24:42.858Z,101253.31
2022-09-07T07:27:09.737Z,101251.47
2022-09-07T07:29:36.707Z,101255.41
2022-09-07T07:32:04.408Z,101252.47
2022-09-07T07:34:31.302Z,101240.88
2022-09-07T07:36:58.205Z,101247.84
2022-09-07T07:42:12.617Z,101247.38
2022-09-07T07:44:39.367Z,101255.69
2022-09-07T07:47:06.312Z,101255.69
2022-09-07T07:49:33.166Z,101249.13
2022-09-07T07:54:46.859Z,101263.63
2022-09-07T07:57:14.323Z,101262.34
2022-09-07T07:59:41.097Z,101267.00
2022-09-07T08:02:13.862Z,101273.38
2022-09-07T08:04:40.746Z,101265.56
2022-09-07T08:07:10.775Z,101267.09
2022-09-07T08:09:42.200Z,101264.31
2022-09-07T08:12:11.434Z,101265.94
2022-09-07T08:14:42.721Z,101264.09
2022-09-07T08:17:14.199Z,101274.88
2022-09-07T08:19:48.246Z,101278.69
2022-09-07T08:22:14.839Z,101280.31
2022-09-07T08:24:41.435Z,101282.00
2022-09-07T08:27:08.398Z,101282.88
2022-09-07T08:29:35.693Z,101289.00
2022-09-07T08:32:04.521Z,101282.53
2022-09-07T08:34:31.269Z,101291.09
2022-09-07T08:36:58.087Z,101290.22
2022-09-07T08:39:25.234Z,101291.47
2022-09-07T08:41:51.740Z,101285.69
2022-09-07T08:44:47.646Z,101288.63
2022-09-07T08:47:28.645Z,101288.41
2022-09-07T08:50:10.384Z,101288.41
2022-09-07T08:52:42.821Z,101280.44
2022-09-07T08:55:32.467Z,101287.66
2022-09-07T08:58:05.098Z,101288.75
2022-09-07T09:00:31.726Z,101284.13
2022-09-07T09:05:51.830Z,101280.94
2022-09-07T09:08:27.415Z,101281.53
2022-09-07T09:11:10.884Z,101278.91
2022-09-07T09:14:10.131Z,101268.00
2022-09-07T09:16:55.497Z,101278.50
2022-09-07T09:19:39.543Z,101286.59
2022-09-07T09:22:18.899Z,101284.44
2022-09-07T09:24:54.652Z,101278.50
2022-09-07T09:27:21.250Z,101279.94
2022-09-07T09:29:47.883Z,101266.81
2022-09-07T09:32:33.403Z,101270.47
2022-09-07T09:35:21.425Z,101263.22
2022-09-07T09:37:47.971Z,101266.53
2022-09-07T09:40:19.111Z,101266.53
2022-09-07T09:42:47.234Z,101259.03
2022-09-07T09:45:22.296Z,101249.78
2022-09-07T09:47:51.212Z,101239.19
2022-09-07T09:53:35.160Z,101236.72
2022-09-07T09:56:04.609Z,101227.91
2022-09-07T10:04:36.943Z,101221.69
2022-09-07T10:07:13.416Z,101230.13
2022-09-07T10:09:43.714Z,101223.44
2022-09-07T10:12:31.121Z,101220.63
2022-09-07T10:15:00.958Z,101215.56
2022-09-07T10:17:43.915Z,101228.69
2022-09-07T10:20:20.073Z,101217.06
2022-09-07T10:22:59.419Z,101220.34
2022-09-07T10:25:44.479Z,101213.22
2022-09-07T10:28:12.668Z,101205.09
2022-09-07T10:31:15.783Z,101207.34
2022-09-07T10:34:26.467Z,101207.03
2022-09-07T10:37:09.652Z,101205.47
2022-09-07T10:39:41.787Z,101208.78
2022-09-07T10:42:35.883Z,101205.91
2022-09-07T10:45:18.562Z,101197.66
2022-09-07T10:48:14.083Z,101204.50
2022-09-07T10:51:12.704Z,101209.34
2022-09-07T10:57:23.490Z,101192.78
2022-09-07T11:00:10.345Z,101197.94
2022-09-07T11:06:18.823Z,101187.03
2022-09-07T11:12:20.761Z,101169.31
2022-09-07T11:15:12.874Z,101172.03
2022-09-07T11:17:57.042Z,101170.03
2022-09-07T11:20:50.775Z,101169.28
2022-09-07T11:23:26.322Z,101170.78
2022-09-07T11:26:26.626Z,101161.13
2022-09-07T11:31:55.507Z,101143.34
2022-09-07T11:34:30.233Z,101137.91
2022-09-07T11:37:03.146Z,101133.66
2022-09-07T11:39:36.287Z,101139.84
2022-09-07T11:45:12.906Z,101137.91
2022-09-07T11:47:46.337Z,101137.28
2022-09-07T11:50:18.925Z,101128.81
2022-09-07T11:53:17.009Z,101133.56
2022-09-07T11:55:48.381Z,101137.66
2022-09-07T11:58:37.611Z,101130.38
2022-09-07T12:01:25.914Z,101119.28
2022-09-07T12:04:16.935Z,101116.25
2022-09-07T12:06:46.388Z,101112.31
2022-09-07T12:09:24.174Z,101096.78
2022-09-07T12:12:09.725Z,101099.09
2022-09-07T12:15:27.632Z,101103.88
2022-09-07T12:18:10.251Z,101101.56
2022-09-07T12:20:42.998Z,101103.84
2022-09-07T12:23:26.463Z,101097.75
2022-09-07T12:26:13.321Z,101100.91
2022-09-07T12:28:39.946Z,101085.63
2022-09-07T12:31:12.445Z,101103.78
2022-09-07T12:33:40.575Z,101088.94
2022-09-07T12:36:26.115Z,101082.56
2022-09-07T12:39:25.685Z,101082.41
2022-09-07T12:45:29.410Z,101079.91
2022-09-07T12:48:04.596Z,101088.34
2022-09-07T12:50:39.465Z,101078.88
2022-09-07T12:53:13.063Z,101087.75
2022-09-07T12:58:45.144Z,101079.97
2022-09-07T13:01:19.507Z,101073.31
2022-09-07T13:04:12.967Z,101076.00
2022-09-07T13:07:13.154Z,101078.06
2022-09-07T13:09:41.537Z,101085.38
2022-09-07T13:15:28.737Z,101084.13
2022-09-07T13:17:56.631Z,101077.63
2022-09-07T13:20:30.330Z,101077.66
2022-09-07T13:23:09.323Z,101076.19
2022-09-07T13:25:36.941Z,101079.81
2022-09-07T13:28:44.542Z,101074.97
2022-09-07T13:31:19.683Z,101063.97
2022-09-07T13:33:52.525Z,101071.28
2022-09-07T13:36:25.676Z,101058.84
2022-09-07T13:38:54.572Z,101054.34
2022-09-07T13:41:26.282Z,101045.22
2022-09-07T13:43:57.724Z,101042.78
2022-09-07T13:46:48.021Z,101035.38
2022-09-07T13:49:28.906Z,101041.81
2022-09-07T13:52:05.886Z,101033.69
2022-09-07T13:55:03.227Z,101031.81
2022-09-07T13:57:52.929Z,101032.97
2022-09-07T14:00:23.035Z,101031.69
2022-09-07T14:02:56.699Z,101017.47
2022-09-07T14:05:25.018Z,101018.72
2022-09-07T14:07:53.800Z,101007.91
2022-09-07T14:10:26.212Z,101009.22
2022-09-07T14:13:05.887Z,100999.41
2022-09-07T14:15:39.484Z,101005.09
2022-09-07T14:18:22.551Z,100996.34
2022-09-07T14:20:52.503Z,100996.78
2022-09-07T14:23:34.885Z,100992.47
2022-09-07T14:26:18.713Z,100984.81
2022-09-07T14:28:54.177Z,100980.28
2022-09-07T14:31:23.335Z,100985.72
2022-09-07T14:33:54.684Z,100990.31
2022-09-07T14:36:45.479Z,100979.47
2022-09-07T14:39:16.082Z,100987.03
2022-09-07T14:41:44.165Z,100983.75
2022-09-07T14:44:31.900Z,100980.22
2022-09-07T14:47:07.629Z,100995.69
2022-09-07T14:49:34.978Z,100987.44
2022-09-07T14:52:02.050Z,100988.03
2022-09-07T14:54:34.198Z,100989.00
2022-09-07T14:57:05.749Z,100975.22
2022-09-07T14:59:41.890Z,100972.91
2022-09-07T15:02:28.366Z,100982.31
2022-09-07T15:05:23.237Z,100976.75
2022-09-07T15:07:58.865Z,100974.63
2022-09-07T15:10:25.746Z,100973.47
2022-09-07T15:12:57.525Z,100973.44
2022-09-07T15:15:26.685Z,100983.31
2022-09-07T15:18:03.158Z,100967.81
2022-09-07T15:20:44.022Z,100971.63
2022-09-07T15:23:15.698Z,100971.50
2022-09-07T15:25:48.227Z,100966.94
2022-09-07T15:34:02.393Z,100947.44
2022-09-07T15:36:32.001Z,100939.63
2022-09-07T15:39:01.138Z,100939.91
2022-09-07T15:41:29.595Z,100944.19
2022-09-07T15:43:57.785Z,100938.06
2022-09-07T15:46:25.025Z,100945.59
2022-09-07T15:49:12.556Z,100934.09
2022-09-07T15:54:29.859Z,100930.91
2022-09-07T15:59:45.238Z,100937.06
2022-09-07T16:04:58.534Z,100949.75
2022-09-07T16:08:24.855Z,100938.78
2022-09-07T16:10:12.448Z,100937.63
2022-09-07T16:15:26.994Z,100941.31
2022-09-07T16:17:54.081Z,100935.06
2022-09-07T16:20:20.873Z,100936.38
2022-09-07T16:25:35.204Z,100934.22
2022-09-07T16:28:02.429Z,100940.63
2022-09-07T16:30:29.090Z,100927.25
2022-09-07T16:32:56.003Z,100920.56
2022-09-07T16:35:23.122Z,100917.75
2022-09-07T16:40:44.420Z,100937.31
2022-09-07T16:43:11.287Z,100940.88
2022-09-07T16:48:24.600Z,100923.06
2022-09-07T16:50:55.420Z,100926.63
2022-09-07T16:53:25.847Z,100928.47
2022-09-07T16:55:53.362Z,100923.91
2022-09-07T16:58:37.904Z,100928.03
2022-09-07T17:03:39.480Z,100931.81
2022-09-07T17:06:09.206Z,100914.97
2022-09-07T17:08:37.593Z,100900.91
2022-09-07T17:11:09.893Z,100914.56
2022-09-07T17:13:38.831Z,100916.88
2022-09-07T17:16:10.486Z,100920.88
2022-09-07T17:21:28.685Z,100932.81
2022-09-07T17:23:56.137Z,100920.44
2022-09-07T17:26:26.723Z,100922.84
2022-09-07T17:29:00.417Z,100917.16
2022-09-07T17:34:23.744Z,100924.81
2022-09-07T17:36:51.299Z,100932.81
2022-09-07T17:39:19.312Z,100929.50
2022-09-07T17:41:47.765Z,100926.97
2022-09-07T17:44:15.426Z,100927.50
2022-09-07T17:46:42.302Z,100925.16
2022-09-07T17:49:12.235Z,100925.81
2022-09-07T17:51:39.546Z,100933.22
2022-09-07T17:54:11.145Z,100938.34
2022-09-07T17:56:39.248Z,100940.75
2022-09-07T18:01:54.216Z,100957.03
2022-09-07T18:04:21.687Z,100938.59
2022-09-07T18:06:48.738Z,100944.19
2022-09-07T18:09:15.766Z,100939.72
2022-09-07T18:11:46.693Z,100941.47
2022-09-07T18:14:14.798Z,100936.66
2022-09-07T18:16:43.526Z,100945.97
2022-09-07T18:19:11.274Z,100956.44
2022-09-07T18:21:39.279Z,100975.47
2022-09-07T18:24:13.529Z,100996.91
2022-09-07T18:26:40.849Z,101009.97
2022-09-07T18:29:25.884Z,101016.88
2022-09-07T18:31:55.232Z,101010.34
2022-09-07T18:34:22.393Z,101009.28
2022-09-07T18:36:49.955Z,101008.38
2022-09-07T18:39:20.564Z,101007.38
2022-09-07T18:41:47.247Z,101012.66
2022-09-07T18:47:08.587Z,101016.63
2022-09-07T18:49:37.442Z,101018.16
2022-09-07T18:54:51.205Z,101018.88
2022-09-07T18:57:18.107Z,101012.84
2022-09-07T18:59:49.248Z,101021.22
2022-09-07T19:02:21.741Z,101021.56
2022-09-07T19:07:42.033Z,101027.47
2022-09-07T19:10:11.566Z,101028.69
2022-09-07T19:12:43.750Z,101021.72
2022-09-07T19:15:12.729Z,101016.66
2022-09-07T19:17:39.579Z,101021.69
2022-09-07T19:20:08.121Z,101010.25
2022-09-07T19:22:35.154Z,101007.47
2022-09-07T19:25:02.515Z,101007.41
2022-09-07T19:27:29.222Z,101012.97
2022-09-07T19:29:56.923Z,101005.88
2022-09-07T19:32:25.591Z,101008.94
2022-09-07T19:34:55.852Z,101016.06
2022-09-07T19:37:27.540Z,101006.41
2022-09-07T19:39:57.407Z,101005.56
2022-09-07T19:42:24.945Z,100999.63
2022-09-07T19:44:53.208Z,100999.47
2022-09-07T19:47:20.605Z,101012.34
2022-09-07T19:49:47.632Z,101002.03
2022-09-07T19:52:14.260Z,101005.06
2022-09-07T19:54:42.422Z,101012.16
2022-09-07T19:57:09.932Z,101010.25
2022-09-07T19:59:37.889Z,101010.03
2022-09-07T20:02:04.993Z,101010.44
2022-09-07T20:04:31.986Z,101020.00
2022-09-07T20:06:58.811Z,101018.06
2022-09-07T20:09:26.016Z,101023.56
2022-09-07T20:11:54.187Z,101022.84
2022-09-07T20:14:20.978Z,101011.53
2022-09-07T20:16:48.904Z,101007.16
2022-09-07T20:19:15.500Z,101010.81
2022-09-07T20:21:42.814Z,101011.41
2022-09-07T20:24:12.786Z,101006.59
2022-09-07T20:26:40.179Z,101007.63
2022-09-07T20:29:26.893Z,101000.38
2022-09-07T20:31:56.924Z,101004.78
2022-09-07T20:34:25.323Z,101007.41
2022-09-07T20:36:52.545Z,101007.63
2022-09-07T20:39:19.740Z,101012.78
2022-09-07T20:41:48.514Z,101007.44
2022-09-07T20:44:16.077Z,100996.78
2022-09-07T20:46:44.042Z,100987.34
2022-09-07T20:49:11.008Z,100988.38
2022-09-07T20:51:39.015Z,100978.69
2022-09-07T20:54:05.694Z,100983.47
2022-09-07T20:56:32.304Z,100979.19
2022-09-07T20:59:00.707Z,100975.16
2022-09-07T21:01:28.487Z,100978.19
2022-09-07T21:03:58.000Z,100987.13
2022-09-07T21:06:26.219Z,100970.72
2022-09-07T21:08:53.615Z,100966.34
2022-09-07T21:11:24.543Z,100972.72
2022-09-07T21:13:59.319Z,100963.91
2022-09-07T21:16:27.113Z,100969.63
2022-09-07T21:18:55.982Z,100977.78
2022-09-07T21:21:24.456Z,100984.00
2022-09-07T21:23:56.777Z,100976.22
2022-09-07T21:26:25.923Z,100974.38
2022-09-07T21:29:01.342Z,100980.88
2022-09-07T21:31:29.745Z,100973.72
2022-09-07T21:33:58.530Z,100964.53
2022-09-07T21:36:27.646Z,100964.56
2022-09-07T21:38:54.975Z,100959.53
2022-09-07T21:41:23.287Z,100948.91
2022-09-07T21:43:54.806Z,100956.34
2022-09-07T21:46:21.475Z,100957.22
2022-09-07T21:48:48.111Z,100947.72
2022-09-07T21:51:15.337Z,100948.50
2022-09-07T21:53:43.149Z,100939.69
2022-09-07T21:56:13.141Z,100954.63
2022-09-07T21:58:40.629Z,100942.38
2022-09-07T22:01:15.040Z,100943.25
2022-09-07T22:03:41.814Z,100952.16
2022-09-07T22:06:09.595Z,100941.38
2022-09-07T22:08:38.499Z,100942.75
2022-09-07T22:11:07.804Z,100941.84
2022-09-07T22:13:35.018Z,100936.44
2022-09-07T22:16:01.990Z,100928.56
2022-09-07T22:18:30.333Z,100930.56
2022-09-07T22:21:09.778Z,100923.06
2022-09-07T22:23:39.944Z,100922.41
2022-09-07T22:26:07.900Z,100913.38
2022-09-07T22:28:36.803Z,100910.88
2022-09-07T22:31:17.183Z,100911.09
2022-09-07T22:33:45.121Z,100919.19
2022-09-07T22:36:22.514Z,100911.34
2022-09-07T22:38:57.855Z,100903.91
2022-09-07T22:41:30.053Z,100899.78
2022-09-07T22:43:57.752Z,100907.38
2022-09-07T22:46:27.575Z,100899.28
2022-09-07T22:48:56.037Z,100901.72
2022-09-07T22:51:24.917Z,100891.59
2022-09-07T22:53:51.937Z,100905.59
2022-09-07T22:56:22.372Z,100905.91
2022-09-07T22:58:51.425Z,100896.75
2022-09-07T23:01:19.166Z,100904.13
2022-09-07T23:03:46.017Z,100903.84
2022-09-07T23:06:40.356Z,100902.00
2022-09-07T23:09:17.426Z,100904.81
2022-09-07T23:11:45.569Z,100891.81
2022-09-07T23:14:20.074Z,100896.97
2022-09-07T23:16:47.126Z,100898.31
2022-09-07T23:19:15.514Z,100895.72
2022-09-07T23:21:42.626Z,100892.91
2022-09-07T23:24:15.078Z,100887.66
2022-09-07T23:26:42.420Z,100877.53
2022-09-07T23:29:11.742Z,100881.06
2022-09-07T23:31:38.434Z,100881.22
2022-09-07T23:34:05.322Z,100881.47
2022-09-07T23:36:32.651Z,100874.38
2022-09-07T23:39:00.041Z,100871.69
2022-09-07T23:41:27.575Z,100869.09
2022-09-07T23:43:55.195Z,100873.59
2022-09-07T23:46:22.195Z,100866.31
2022-09-07T23:48:50.148Z,100872.63
2022-09-07T23:51:22.745Z,100873.97
2022-09-07T23:53:50.515Z,100871.63
2022-09-07T23:56:17.152Z,100872.56
2022-09-07T23:58:43.818Z,100869.91
